Meath Environmental Platform

Observations for Trim Patrick St

Time AQI Temp °C Hum % Pres Pa CO μg/m³ H₂S μg/m³ NO μg/m³ NO₂ μg/m³ O₃ μg/m³ SO₂ μg/m³ PM1 μg/m³ PM2.5 μg/m³ PM10 μg/m³
Thursday 27 August 2026
07:14 2 17.8 86 38,459 0.18 0 1.03 16.81 30.02 0 26 36.42 38.51
07:13 2 17.8 86 38,459 0.18 0 1.06 22.62 31.43 0 26 35.7 40.36
07:12 2 17.8 86 38,459 0.19 0 1.1 15.9 32.42 0 26 35.71 38.47
07:11 2 17.8 86 38,459 0.17 0 1.08 21.11 44.61 0 27.72 37.17 40.62
07:10 2 17.8 86 38,459 0.17 0 1.2 12.82 30.53 0 25.14 34.34 35.24
07:09 2 17.8 86 38,459 0.18 0 1.13 23.97 41.18 0 26.86 37.86 42.57
07:08 2 17.8 86 38,459 0.2 0 1.08 13.96 28.5 0 24.29 32.95 33.91
07:07 2 17.8 87 38,459 0.2 0 1.17 13.05 39.55 0 25.14 34.98 36.41
07:06 2 17.7 87 38,459 0.17 0 1.17 12.7 34.11 0 25.14 34.28 36.37
07:05 2 17.7 87 38,459 0.2 0 0.81 13.16 35.2 0 26 34.29 34.48
07:04 2 17.7 87 38,459 0.22 0 0.83 12.45 34.53 0 26 34.28 35.08
07:03 2 17.7 87 38,459 0.19 0 0.94 19.29 33.09 0 26 35.65 37.66
07:02 2 17.7 87 38,459 0.2 0 0.81 12.11 37.4 0 24.29 32.91 33.15
07:01 2 17.7 87 38,459 0.19 0 1.06 12.69 37.94 0 23.43 32.24 33.83
07:00 2 17.7 87 38,458 0.19 0 1.29 14.54 29.59 0 26 34.26 35.05
06:59 2 17.7 87 38,457 0.2 0.38 1.49 24.08 30.84 0 24.29 31.53 32.51
06:58 2 17.7 87 38,457 0.2 0 1.51 14.3 27.37 0 24.29 32.91 33.15
06:57 2 17.7 87 38,455 0.2 0 2.24 24.36 32.25 0 23.43 32.21 35.43
06:56 2 17.7 87 38,454 0.2 0 1.57 12.37 39.22 0 24.29 33.59 35.73
06:53 2 17.7 87 38,445 0.2 0 1.15 14.82 30.15 0 24.29 32.19 33.72